Time;durP1;ratioP1;P1;durP2;ratioP2;P2;SDS_P1;SDS_P2;PMS_P1;PMS_P2;Temp;Humidity;BMP_temperature;BMP_pressure;BME280_temperature;BME280_humidity;BME280_pressure;Samples;Min_cycle;Max_cycle;Signal;HPM_P1;HPM_P2
2023/05/11 00:00:29;;;;;;;383.83;362.73;;;11.50;35.00;;;;;;5074936;28;20564;-70
2023/05/11 00:02:55;;;;;;;480.43;454.13;;;11.60;34.30;;;;;;5073203;28;20440;-70
2023/05/11 00:05:20;;;;;;;407.73;383.17;;;11.60;34.60;;;;;;5073427;28;20208;-70
2023/05/11 00:07:46;;;;;;;439.70;414.30;;;11.50;34.50;;;;;;5073047;28;20969;-70
2023/05/11 00:10:11;;;;;;;487.73;459.23;;;11.50;36.00;;;;;;5072144;28;20666;-70
2023/05/11 00:12:37;;;;;;;445.60;419.70;;;11.50;35.00;;;;;;5073323;28;20693;-70
2023/05/11 00:15:03;;;;;;;418.60;394.00;;;11.50;35.30;;;;;;5073532;28;20316;-70
2023/05/11 00:17:28;;;;;;;500.20;469.23;;;11.50;35.00;;;;;;5072045;28;20662;-73
2023/05/11 00:19:54;;;;;;;424.00;400.33;;;11.60;35.20;;;;;;5072904;28;20494;-69
2023/05/11 00:22:20;;;;;;;425.70;402.87;;;11.60;34.70;;;;;;5072670;28;20205;-70
2023/05/11 00:24:45;;;;;;;523.27;492.00;;;11.70;34.90;;;;;;5073215;28;20176;-72
2023/05/11 00:27:11;;;;;;;614.47;572.70;;;11.60;35.20;;;;;;5073078;28;20532;-70
2023/05/11 00:29:36;;;;;;;328.97;308.97;;;11.70;34.70;;;;;;5071866;28;20180;-69
2023/05/11 00:32:02;;;;;;;452.23;427.43;;;11.80;34.40;;;;;;5072725;28;20265;-69
2023/05/11 00:34:30;;;;;;;433.43;407.03;;;11.80;33.20;;;;;;5072975;28;20318;-70
2023/05/11 00:36:56;;;;;;;466.23;439.67;;;11.80;33.70;;;;;;5073122;28;20697;-71
2023/05/11 00:39:21;;;;;;;517.47;486.17;;;11.70;34.70;;;;;;5071932;28;20435;-71
2023/05/11 00:41:47;;;;;;;371.23;350.33;;;11.70;34.60;;;;;;5072899;28;20205;-72
2023/05/11 00:44:13;;;;;;;507.43;476.77;;;11.70;35.10;;;;;;5073042;28;20640;-71
2023/05/11 00:46:38;;;;;;;476.23;446.37;;;11.70;35.20;;;;;;5072838;28;20184;-70
2023/05/11 00:49:04;;;;;;;367.77;346.80;;;11.70;35.30;;;;;;5072265;28;20171;-70
2023/05/11 00:51:31;;;;;;;387.67;365.00;;;11.70;35.40;;;;;;5072633;28;20205;-71
2023/05/11 00:54:01;;;;;;;464.27;436.20;;;11.70;35.20;;;;;;5075643;28;20420;-69
2023/05/11 00:56:27;;;;;;;405.77;381.97;;;11.60;35.20;;;;;;5075439;28;20895;-69
2023/05/11 00:58:52;;;;;;;385.10;363.53;;;11.60;35.50;;;;;;5073996;28;20416;-69
2023/05/11 01:01:18;;;;;;;418.43;395.33;;;11.60;35.80;;;;;;5074407;28;20208;-68
2023/05/11 01:03:46;;;;;;;455.20;430.13;;;11.60;36.00;;;;;;5076212;28;20271;-68
2023/05/11 01:06:38;;;;;;;371.83;350.73;;;11.70;35.70;;;;;;5075934;28;20214;-68
2023/05/11 01:09:40;;;;;;;420.40;393.87;;;11.70;35.80;;;;;;5076393;28;20401;-69
2023/05/11 01:12:15;;;;;;;476.80;445.90;;;11.60;35.40;;;;;;5065849;28;20524;-69
2023/05/11 01:14:47;;;;;;;447.00;418.43;;;11.60;35.70;;;;;;5076800;28;20443;-70
2023/05/11 01:17:24;;;;;;;415.37;391.23;;;11.70;35.40;;;;;;5076619;28;20527;-70
2023/05/11 01:19:57;;;;;;;454.77;428.57;;;11.70;35.10;;;;;;5076674;28;20471;-68
2023/05/11 01:22:59;;;;;;;466.93;440.93;;;11.60;35.40;;;;;;5075991;28;20432;-69
2023/05/11 01:25:37;;;;;;;533.10;499.87;;;11.70;35.00;;;;;;5067987;28;20419;-68
2023/05/11 01:28:21;;;;;;;570.70;534.93;;;11.80;35.00;;;;;;5076308;28;20411;-69
2023/05/11 01:30:50;;;;;;;429.17;404.90;;;11.70;35.30;;;;;;5075790;28;20408;-70
2023/05/11 01:33:23;;;;;;;456.10;430.53;;;11.70;35.20;;;;;;5074771;28;20818;-69
2023/05/11 01:35:52;;;;;;;449.30;423.43;;;11.70;35.00;;;;;;5075523;28;20416;-69
2023/05/11 01:38:20;;;;;;;394.57;370.50;;;11.80;35.30;;;;;;5075689;28;20412;-69
2023/05/11 01:40:54;;;;;;;428.83;403.13;;;11.70;35.20;;;;;;5075508;28;20454;-69
2023/05/11 01:43:22;;;;;;;463.83;438.77;;;11.80;35.10;;;;;;5074607;28;20489;-68
2023/05/11 01:45:50;;;;;;;476.93;448.33;;;11.80;35.10;;;;;;5073571;28;20477;-71
2023/05/11 01:48:20;;;;;;;435.50;408.80;;;11.70;35.40;;;;;;5072439;28;20411;-71
2023/05/11 01:50:48;;;;;;;487.93;457.00;;;11.70;35.70;;;;;;5072147;28;20436;-72
2023/05/11 01:53:14;;;;;;;465.33;439.97;;;11.70;35.80;;;;;;5072623;28;20922;-72
2023/05/11 01:55:41;;;;;;;496.93;468.30;;;11.70;35.70;;;;;;5072831;28;20422;-72
2023/05/11 01:58:09;;;;;;;376.60;354.40;;;11.80;35.60;;;;;;5072382;28;20408;-70
2023/05/11 02:00:35;;;;;;;441.93;417.23;;;11.70;35.50;;;;;;5075293;28;20460;-69
2023/05/11 02:03:05;;;;;;;491.00;460.80;;;11.60;35.70;;;;;;5075642;28;20835;-69
2023/05/11 02:05:34;;;;;;;411.50;385.93;;;11.70;35.90;;;;;;5076176;28;20879;-71
2023/05/11 02:08:02;;;;;;;439.10;415.27;;;11.70;35.80;;;;;;5075960;28;20455;-70
2023/05/11 02:10:29;;;;;;;426.63;402.20;;;11.70;36.60;;;;;;5074652;28;20417;-70
2023/05/11 02:12:55;;;;;;;445.87;418.70;;;11.70;35.40;;;;;;5075711;28;20441;-70
2023/05/11 02:15:24;;;;;;;412.10;387.00;;;11.60;35.40;;;;;;5077825;28;20499;-70
2023/05/11 02:17:52;;;;;;;449.50;423.70;;;11.60;36.10;;;;;;5077132;28;20417;-70
2023/05/11 02:20:19;;;;;;;381.20;358.60;;;11.70;36.00;;;;;;5077555;28;20456;-70
2023/05/11 02:22:45;;;;;;;428.50;401.97;;;11.60;36.30;;;;;;5076064;28;20460;-70
2023/05/11 02:25:12;;;;;;;470.20;444.63;;;11.50;37.50;;;;;;5075680;28;20773;-70
2023/05/11 02:27:37;;;;;;;438.33;412.20;;;11.60;37.90;;;;;;5076160;28;20773;-68
2023/05/11 02:30:07;;;;;;;489.60;463.00;;;11.60;37.60;;;;;;5075686;28;20416;-69
2023/05/11 02:32:36;;;;;;;495.33;468.63;;;11.60;36.70;;;;;;5074105;28;20572;-70
2023/05/11 02:35:30;;;;;;;500.93;470.17;;;11.60;36.30;;;;;;5074428;28;20506;-69
2023/05/11 02:38:03;;;;;;;580.47;542.53;;;11.70;36.60;;;;;;5071263;28;20427;-69
2023/05/11 02:40:32;;;;;;;395.80;373.90;;;11.70;36.70;;;;;;5075394;28;20867;-69
2023/05/11 02:43:09;;;;;;;572.20;538.80;;;11.80;36.20;;;;;;5075012;28;20941;-69
2023/05/11 02:45:36;;;;;;;470.40;442.70;;;11.90;36.30;;;;;;5075240;28;20438;-69
2023/05/11 02:48:08;;;;;;;480.40;453.63;;;11.80;35.90;;;;;;5074970;28;20418;-69
2023/05/11 02:50:39;;;;;;;370.30;347.90;;;11.70;35.80;;;;;;5075212;28;20416;-69
2023/05/11 02:53:10;;;;;;;372.40;349.93;;;11.70;36.40;;;;;;5073479;28;20454;-69
2023/05/11 02:55:36;;;;;;;472.93;445.00;;;11.70;36.70;;;;;;5075406;28;20407;-70
2023/05/11 02:58:02;;;;;;;446.80;422.10;;;11.60;37.90;;;;;;5075430;28;20419;-69
2023/05/11 03:00:28;;;;;;;492.43;461.80;;;11.70;37.40;;;;;;5073992;28;20256;-69
2023/05/11 03:02:53;;;;;;;448.37;421.43;;;11.70;37.30;;;;;;5075906;28;20926;-69
2023/05/11 03:05:19;;;;;;;380.90;357.97;;;11.70;37.60;;;;;;5075930;28;20231;-69
2023/05/11 03:07:45;;;;;;;437.77;410.00;;;11.60;38.00;;;;;;5075574;28;20212;-69
2023/05/11 03:10:10;;;;;;;385.90;363.33;;;11.50;38.50;;;;;;5076001;28;20175;-69
2023/05/11 03:12:37;;;;;;;458.43;430.53;;;11.60;39.10;;;;;;5076210;28;20562;-69
2023/05/11 03:15:03;;;;;;;429.17;405.57;;;11.60;38.70;;;;;;5075175;28;20186;-69
2023/05/11 03:17:29;;;;;;;446.90;419.10;;;11.50;38.10;;;;;;5075462;28;20780;-69
2023/05/11 03:19:57;;;;;;;379.73;356.83;;;11.50;39.00;;;;;;5074276;28;20490;-70
2023/05/11 03:22:23;;;;;;;476.57;446.10;;;11.60;38.10;;;;;;5074845;28;20786;-69
2023/05/11 03:24:50;;;;;;;403.80;379.37;;;11.50;38.90;;;;;;5075732;28;20403;-68
2023/05/11 03:27:17;;;;;;;457.27;431.47;;;11.50;38.00;;;;;;5075470;28;20412;-69
2023/05/11 03:29:44;;;;;;;463.43;438.17;;;11.60;38.20;;;;;;5074330;28;20845;-69
2023/05/11 03:32:10;;;;;;;401.10;378.37;;;11.60;38.10;;;;;;5075319;28;20507;-69
2023/05/11 03:34:36;;;;;;;639.77;597.20;;;11.60;37.60;;;;;;5075554;28;20457;-70
2023/05/11 03:37:06;;;;;;;409.43;383.60;;;11.60;38.10;;;;;;5074002;28;20986;-70
2023/05/11 03:39:32;;;;;;;404.63;381.87;;;11.60;38.60;;;;;;5075241;28;20163;-69
2023/05/11 03:42:00;;;;;;;372.67;350.20;;;11.50;39.10;;;;;;5074633;28;20523;-70
2023/05/11 03:44:28;;;;;;;409.70;386.20;;;11.50;38.90;;;;;;5074083;28;20536;-70
2023/05/11 03:46:55;;;;;;;377.63;355.53;;;11.60;38.80;;;;;;5074232;28;20514;-70
2023/05/11 03:49:21;;;;;;;499.53;472.00;;;11.60;38.20;;;;;;5074381;28;20416;-70
2023/05/11 03:51:47;;;;;;;448.53;420.87;;;11.60;39.00;;;;;;5074058;28;20420;-70
2023/05/11 03:54:13;;;;;;;468.00;441.83;;;11.70;39.60;;;;;;5074205;28;20180;-70
2023/05/11 03:56:39;;;;;;;364.03;343.93;;;11.70;39.50;;;;;;5074500;28;20905;-70
2023/05/11 03:59:05;;;;;;;363.77;341.13;;;11.60;40.20;;;;;;5074568;28;20174;-70
2023/05/11 04:01:31;;;;;;;401.20;378.47;;;11.50;40.90;;;;;;5073979;28;20471;-70
2023/05/11 04:03:57;;;;;;;455.53;427.80;;;11.60;41.20;;;;;;5075426;28;20401;-71
2023/05/11 04:06:23;;;;;;;476.00;446.67;;;11.60;40.90;;;;;;5074585;28;20461;-71
2023/05/11 04:08:49;;;;;;;558.27;521.33;;;11.60;40.80;;;;;;5075628;28;20175;-71
2023/05/11 04:11:15;;;;;;;382.20;357.90;;;11.60;40.90;;;;;;5076542;28;20412;-71
2023/05/11 04:13:41;;;;;;;349.00;328.70;;;11.70;40.50;;;;;;5077077;28;20411;-70
2023/05/11 04:16:07;;;;;;;369.03;345.10;;;11.70;40.90;;;;;;5077057;28;20409;-70
2023/05/11 04:18:33;;;;;;;472.20;446.23;;;11.60;41.40;;;;;;5074643;28;20177;-71
2023/05/11 04:20:58;;;;;;;472.60;446.50;;;11.60;41.20;;;;;;5074303;28;20542;-70
2023/05/11 04:23:24;;;;;;;456.33;430.83;;;11.70;41.10;;;;;;5072797;28;20432;-71
2023/05/11 04:25:53;;;;;;;419.90;395.37;;;11.70;41.60;;;;;;5073943;28;20241;-71
2023/05/11 04:28:21;;;;;;;470.77;442.27;;;11.70;41.50;;;;;;5074063;28;20635;-71
2023/05/11 04:30:52;;;;;;;430.03;404.37;;;11.80;41.70;;;;;;5074018;28;20405;-72
2023/05/11 04:33:17;;;;;;;401.87;378.47;;;11.80;42.00;;;;;;5072030;28;20493;-70
2023/05/11 04:35:43;;;;;;;389.03;366.53;;;11.80;42.10;;;;;;5072826;28;20457;-70
2023/05/11 04:38:08;;;;;;;373.13;351.73;;;11.80;42.90;;;;;;5072920;28;20703;-69
2023/05/11 04:40:35;;;;;;;539.50;505.67;;;11.70;42.80;;;;;;5072357;28;20725;-70
2023/05/11 04:43:00;;;;;;;394.63;372.53;;;11.80;42.90;;;;;;5072184;28;20204;-69
2023/05/11 04:45:26;;;;;;;426.83;400.70;;;11.80;42.90;;;;;;5072501;28;20913;-69
2023/05/11 04:47:51;;;;;;;347.77;327.33;;;11.80;42.90;;;;;;5071206;28;20187;-70
2023/05/11 04:50:17;;;;;;;435.10;410.60;;;11.80;42.90;;;;;;5062500;28;20218;-69
2023/05/11 04:52:43;;;;;;;452.13;424.20;;;11.90;43.00;;;;;;5052042;28;20746;-69
2023/05/11 04:55:08;;;;;;;427.70;401.23;;;11.80;39.70;;;;;;5052225;28;20173;-70
2023/05/11 04:57:34;;;;;;;344.63;322.97;;;11.60;42.70;;;;;;5052176;28;20176;-70
2023/05/11 04:59:59;;;;;;;404.83;381.80;;;11.70;42.80;;;;;;5052012;28;20287;-68
2023/05/11 05:02:25;;;;;;;385.30;361.77;;;11.80;42.90;;;;;;5050369;28;20305;-69
2023/05/11 05:04:51;;;;;;;433.83;409.43;;;11.90;43.00;;;;;;5052165;28;20602;-69
2023/05/11 05:07:16;;;;;;;401.43;377.37;;;12.00;41.30;;;;;;5052017;28;20171;-69
2023/05/11 05:09:42;;;;;;;416.30;392.73;;;12.10;40.50;;;;;;5051797;28;20242;-69
2023/05/11 05:12:08;;;;;;;519.43;485.23;;;12.20;40.00;;;;;;5051523;28;20194;-69
2023/05/11 05:14:33;;;;;;;441.37;415.80;;;12.30;40.00;;;;;;5051859;28;20196;-69
2023/05/11 05:17:00;;;;;;;429.50;403.13;;;12.30;40.00;;;;;;5051990;28;20414;-67
2023/05/11 05:19:25;;;;;;;382.47;359.87;;;12.10;39.40;;;;;;5051793;28;20173;-67
2023/05/11 05:21:51;;;;;;;415.00;389.80;;;12.10;40.10;;;;;;5050068;28;20468;-70
2023/05/11 05:24:16;;;;;;;504.87;473.73;;;12.20;40.30;;;;;;5051602;28;20171;-68
2023/05/11 05:26:42;;;;;;;506.00;474.30;;;12.40;40.10;;;;;;5051595;28;20182;-67
2023/05/11 05:29:08;;;;;;;364.33;342.17;;;12.20;39.20;;;;;;5047104;28;20527;-68
2023/05/11 05:31:34;;;;;;;399.90;375.37;;;12.00;41.40;;;;;;5049869;28;20205;-69
2023/05/11 05:33:59;;;;;;;468.27;438.67;;;12.10;42.30;;;;;;5051387;28;20228;-69
2023/05/11 05:36:25;;;;;;;481.70;453.73;;;12.30;40.40;;;;;;5051583;28;20417;-69
2023/05/11 05:38:50;;;;;;;427.70;399.60;;;12.40;40.00;;;;;;5051489;28;20175;-68
2023/05/11 05:41:16;;;;;;;504.77;472.93;;;12.60;38.80;;;;;;5051515;28;20304;-68
2023/05/11 05:43:41;;;;;;;415.03;388.57;;;12.70;38.00;;;;;;5051704;28;20171;-68
2023/05/11 05:46:07;;;;;;;458.93;431.37;;;12.80;37.90;;;;;;5051488;28;20185;-69
2023/05/11 05:48:32;;;;;;;459.87;434.00;;;12.90;37.40;;;;;;5051441;28;20187;-68
2023/05/11 05:50:59;;;;;;;517.07;486.20;;;13.00;36.30;;;;;;5050347;28;20196;-68
2023/05/11 05:53:24;;;;;;;516.83;489.23;;;13.00;35.90;;;;;;5049854;28;20209;-68
2023/05/11 05:55:50;;;;;;;456.20;427.77;;;13.00;36.10;;;;;;5050116;28;20918;-68
2023/05/11 05:58:15;;;;;;;547.17;512.93;;;12.90;35.20;;;;;;5051468;28;20586;-70
2023/05/11 06:00:41;;;;;;;425.87;402.27;;;12.80;35.60;;;;;;5051422;28;20741;-68
2023/05/11 06:03:07;;;;;;;351.17;331.17;;;12.80;36.10;;;;;;5051116;28;20752;-68
2023/05/11 06:05:32;;;;;;;461.13;432.83;;;12.90;36.70;;;;;;5050052;28;20206;-68
2023/05/11 06:07:58;;;;;;;436.67;410.90;;;13.10;35.80;;;;;;5051215;28;20184;-68
2023/05/11 06:10:23;;;;;;;476.13;447.43;;;13.20;36.40;;;;;;5051435;28;20645;-70
2023/05/11 06:12:49;;;;;;;501.07;473.93;;;13.10;35.40;;;;;;5050944;28;20668;-68
2023/05/11 06:15:15;;;;;;;541.83;510.20;;;13.20;35.80;;;;;;5049988;28;20193;-68
2023/05/11 06:17:40;;;;;;;539.10;507.77;;;13.30;35.50;;;;;;5051302;28;20178;-68
2023/05/11 06:20:07;;;;;;;457.13;429.03;;;13.40;34.00;;;;;;5051111;28;20195;-69
2023/05/11 06:22:34;;;;;;;504.40;475.33;;;13.10;34.50;;;;;;5050995;28;20191;-68
2023/05/11 06:25:00;;;;;;;528.13;499.23;;;13.00;35.50;;;;;;5051066;28;20411;-68
2023/05/11 06:27:25;;;;;;;504.67;475.27;;;13.20;34.60;;;;;;5051981;28;21122;-68
2023/05/11 06:29:51;;;;;;;459.90;431.50;;;13.30;33.90;;;;;;5051779;28;20173;-68
2023/05/11 06:32:16;;;;;;;417.07;393.27;;;13.40;33.10;;;;;;5051002;28;20256;-68
2023/05/11 06:34:42;;;;;;;537.20;505.67;;;13.30;34.70;;;;;;5051022;28;20670;-67
2023/05/11 06:37:07;;;;;;;537.43;505.03;;;13.40;32.90;;;;;;5051370;28;20182;-67
2023/05/11 06:39:36;;;;;;;505.40;477.77;;;13.40;34.00;;;;;;5051297;28;20182;-68
2023/05/11 06:42:03;;;;;;;574.83;538.50;;;13.20;34.80;;;;;;5042490;28;20407;-68
2023/05/11 06:44:28;;;;;;;520.43;488.90;;;13.10;34.70;;;;;;5051373;28;20413;-69
2023/05/11 06:46:54;;;;;;;391.50;368.93;;;13.20;35.20;;;;;;5052180;28;20412;-68
2023/05/11 06:49:20;;;;;;;504.07;474.57;;;13.20;35.70;;;;;;5048995;28;20185;-68
2023/05/11 06:51:45;;;;;;;567.10;530.83;;;13.20;35.50;;;;;;5046808;28;21331;-69
2023/05/11 06:54:11;;;;;;;521.63;489.80;;;13.20;34.00;;;;;;5049072;28;20431;-67
2023/05/11 06:56:37;;;;;;;409.67;385.37;;;13.10;33.70;;;;;;5050088;28;20552;-68
2023/05/11 06:59:02;;;;;;;482.83;452.87;;;13.10;36.10;;;;;;5051094;28;20463;-67
2023/05/11 07:01:28;;;;;;;436.30;406.43;;;13.30;35.40;;;;;;5048370;28;20210;-69
2023/05/11 07:03:54;;;;;;;511.90;482.73;;;13.50;34.90;;;;;;5050031;28;20229;-69
2023/05/11 07:06:20;;;;;;;397.47;374.67;;;13.40;34.80;;;;;;5049241;28;20209;-69
2023/05/11 07:08:45;;;;;;;513.97;483.67;;;13.20;34.50;;;;;;5049549;28;20428;-68
2023/05/11 07:11:11;;;;;;;480.10;451.33;;;13.50;34.50;;;;;;5046871;28;20528;-70
2023/05/11 07:13:37;;;;;;;507.67;477.10;;;13.50;34.10;;;;;;5041458;28;20201;-68
2023/05/11 07:16:03;;;;;;;453.70;426.17;;;13.60;33.40;;;;;;5042329;28;20429;-69
2023/05/11 07:18:29;;;;;;;583.47;545.07;;;13.60;33.10;;;;;;5030158;28;20947;-68
2023/05/11 07:20:54;;;;;;;469.73;442.93;;;13.60;34.20;;;;;;5029275;28;20242;-67
2023/05/11 07:23:20;;;;;;;562.17;527.73;;;13.70;34.30;;;;;;5029114;28;20308;-68
2023/05/11 07:25:45;;;;;;;504.97;474.63;;;13.70;34.30;;;;;;5030262;28;20185;-68
2023/05/11 07:28:11;;;;;;;591.53;554.30;;;13.80;34.10;;;;;;5030194;28;20175;-67
2023/05/11 07:30:37;;;;;;;552.37;521.00;;;14.00;32.10;;;;;;5029909;28;20183;-68
2023/05/11 07:33:02;;;;;;;596.50;560.33;;;14.10;31.80;;;;;;5028613;28;20229;-69
2023/05/11 07:35:28;;;;;;;582.40;547.17;;;13.90;31.70;;;;;;5029766;28;20274;-69
2023/05/11 07:37:54;;;;;;;500.53;469.33;;;14.20;31.90;;;;;;5029684;28;20184;-69
2023/05/11 07:40:19;;;;;;;658.00;614.57;;;14.20;30.80;;;;;;5030563;28;20494;-68
2023/05/11 07:42:45;;;;;;;485.33;457.77;;;14.20;31.10;;;;;;5029530;28;20191;-68
2023/05/11 07:45:11;;;;;;;553.40;520.90;;;14.20;30.90;;;;;;5029361;28;20594;-68
2023/05/11 07:47:36;;;;;;;701.10;655.60;;;14.50;29.90;;;;;;5030440;28;20215;-68
2023/05/11 07:50:02;;;;;;;511.83;482.30;;;14.40;29.90;;;;;;5029286;28;20223;-68
2023/05/11 07:52:27;;;;;;;497.03;468.27;;;14.50;28.90;;;;;;5031501;28;20198;-67
2023/05/11 07:54:53;;;;;;;446.70;420.13;;;14.50;29.90;;;;;;5052925;28;20244;-68
2023/05/11 07:57:19;;;;;;;670.60;626.97;;;14.60;30.40;;;;;;5053068;28;20535;-70
2023/05/11 07:59:45;;;;;;;575.40;536.90;;;14.40;31.70;;;;;;5051051;28;20190;-70
2023/05/11 08:02:11;;;;;;;512.83;480.27;;;14.50;30.90;;;;;;5053289;28;20437;-69
2023/05/11 08:04:36;;;;;;;471.93;445.33;;;14.40;29.90;;;;;;5051528;28;20245;-69
2023/05/11 08:07:03;;;;;;;630.73;593.03;;;14.60;30.00;;;;;;5053030;28;20417;-69
2023/05/11 08:09:28;;;;;;;585.40;548.00;;;14.70;29.10;;;;;;5053229;28;20163;-69
2023/05/11 08:11:55;;;;;;;709.50;662.20;;;14.70;29.00;;;;;;5053143;28;20799;-69
2023/05/11 08:14:21;;;;;;;669.50;627.07;;;14.80;27.90;;;;;;5053180;28;20182;-71
2023/05/11 08:16:48;;;;;;;603.50;565.20;;;15.00;27.20;;;;;;5053277;28;20445;-70
2023/05/11 08:19:14;;;;;;;788.33;737.13;;;15.10;26.10;;;;;;5051608;28;20463;-70
2023/05/11 08:21:39;;;;;;;712.57;665.80;;;15.10;26.10;;;;;;5052405;28;20868;-70
2023/05/11 08:24:05;;;;;;;575.10;537.93;;;15.30;25.80;;;;;;5052779;28;20171;-70
2023/05/11 08:26:31;;;;;;;509.90;477.93;;;15.50;25.40;;;;;;5051805;28;20261;-70
2023/05/11 08:28:57;;;;;;;580.93;545.47;;;15.20;26.20;;;;;;5052841;28;20177;-70
2023/05/11 08:31:23;;;;;;;846.10;787.47;;;15.30;26.40;;;;;;5053090;28;20452;-70
2023/05/11 08:33:48;;;;;;;743.43;693.33;;;15.30;24.60;;;;;;5052328;28;20194;-70
2023/05/11 08:36:14;;;;;;;636.13;594.03;;;15.40;24.10;;;;;;5052606;28;20232;-71
2023/05/11 08:38:40;;;;;;;627.97;586.20;;;15.50;24.60;;;;;;5051382;28;20582;-70
2023/05/11 08:41:06;;;;;;;675.57;630.53;;;15.60;23.50;;;;;;5052447;28;20464;-69
2023/05/11 08:43:34;;;;;;;721.23;673.23;;;15.80;23.90;;;;;;5052211;28;20500;-70
2023/05/11 08:46:03;;;;;;;477.47;451.20;;;15.90;24.60;;;;;;5052848;28;20828;-70
2023/05/11 08:48:29;;;;;;;639.87;598.63;;;16.10;24.20;;;;;;5051024;28;20448;-70
2023/05/11 08:50:55;;;;;;;588.47;551.07;;;16.40;23.60;;;;;;5052261;28;20417;-69
2023/05/11 08:53:21;;;;;;;639.77;598.67;;;16.20;22.80;;;;;;5051864;28;20536;-70
2023/05/11 08:55:48;;;;;;;516.27;483.97;;;15.90;23.70;;;;;;5052626;28;20488;-70
2023/05/11 08:58:18;;;;;;;705.63;658.90;;;15.80;24.10;;;;;;5052469;28;20639;-69
2023/05/11 09:00:44;;;;;;;714.27;665.63;;;15.90;24.00;;;;;;5052208;28;20510;-68
2023/05/11 09:03:10;;;;;;;836.17;776.23;;;16.10;22.90;;;;;;5051815;28;20433;-69
2023/05/11 09:05:38;;;;;;;447.60;423.33;;;16.10;22.50;;;;;;5052597;28;20439;-70
2023/05/11 09:08:06;;;;;;;807.43;751.43;;;16.10;23.00;;;;;;5052121;28;20470;-70
2023/05/11 09:10:31;;;;;;;520.37;489.20;;;16.10;22.70;;;;;;5051680;28;20421;-69
2023/05/11 09:12:57;;;;;;;516.50;483.93;;;16.00;23.50;;;;;;5051792;28;20516;-70
2023/05/11 09:15:22;;;;;;;611.63;571.33;;;15.80;24.70;;;;;;5052159;28;20174;-69
2023/05/11 09:17:48;;;;;;;699.07;652.33;;;15.60;24.70;;;;;;5052285;28;20182;-68
2023/05/11 09:20:14;;;;;;;687.90;641.90;;;15.80;24.10;;;;;;5051700;28;20206;-69
2023/05/11 09:22:45;;;;;;;660.30;617.63;;;15.80;23.70;;;;;;5051673;28;20635;-69
2023/05/11 09:25:12;;;;;;;848.97;788.73;;;16.00;22.80;;;;;;5052136;28;20170;-69
2023/05/11 09:27:45;;;;;;;664.70;620.70;;;16.00;21.60;;;;;;5051971;28;20417;-70
2023/05/11 09:30:13;;;;;;;695.23;649.07;;;16.10;22.10;;;;;;5050319;28;20792;-69
2023/05/11 09:32:52;;;;;;;516.60;486.30;;;16.30;22.10;;;;;;5051597;28;20506;-70
2023/05/11 09:35:25;;;;;;;772.13;717.50;;;16.50;22.50;;;;;;5051664;28;20939;-69
2023/05/11 09:38:08;;;;;;;621.23;583.13;;;16.60;20.70;;;;;;5052180;28;20413;-69
2023/05/11 09:40:42;;;;;;;657.03;612.60;;;16.60;19.90;;;;;;5051702;28;20471;-70
2023/05/11 09:43:26;;;;;;;556.63;521.27;;;16.20;20.30;;;;;;5051473;28;21200;-69
2023/05/11 09:45:54;;;;;;;587.47;550.40;;;16.20;20.30;;;;;;5050845;28;20470;-70
2023/05/11 09:48:20;;;;;;;658.30;614.93;;;16.00;21.20;;;;;;5051674;28;20551;-70
2023/05/11 09:50:47;;;;;;;780.37;725.03;;;16.00;21.50;;;;;;5051513;28;20496;-69
2023/05/11 09:53:12;;;;;;;788.63;732.83;;;15.90;21.70;;;;;;5051478;28;20202;-69
2023/05/11 09:55:38;;;;;;;530.63;499.03;;;15.90;22.40;;;;;;5051753;28;20754;-70
2023/05/11 09:58:03;;;;;;;555.80;521.63;;;15.90;22.80;;;;;;5051467;28;20287;-69
2023/05/11 10:00:32;;;;;;;815.20;756.93;;;15.90;22.90;;;;;;5051740;28;20206;-68
2023/05/11 10:03:00;;;;;;;659.60;615.60;;;15.90;23.20;;;;;;5051374;28;20611;-68
2023/05/11 10:05:26;;;;;;;619.40;579.63;;;16.10;23.30;;;;;;5051287;28;20421;-69
2023/05/11 10:07:59;;;;;;;613.03;572.93;;;16.10;23.70;;;;;;5051319;28;20409;-69
2023/05/11 10:10:27;;;;;;;544.47;510.97;;;16.20;22.90;;;;;;5051260;28;20171;-69
2023/05/11 10:12:54;;;;;;;672.43;624.47;;;15.80;23.40;;;;;;5050921;28;20435;-70
2023/05/11 10:15:24;;;;;;;822.67;764.60;;;15.60;24.10;;;;;;5051261;28;20413;-69
2023/05/11 10:17:50;;;;;;;654.60;610.67;;;15.40;24.30;;;;;;5051307;28;20441;-69
2023/05/11 10:20:17;;;;;;;539.73;506.07;;;15.30;25.30;;;;;;5050984;28;20802;-69
2023/05/11 10:22:45;;;;;;;544.03;510.10;;;15.20;26.20;;;;;;5054825;28;20424;-69
2023/05/11 10:25:10;;;;;;;747.03;696.20;;;15.30;26.40;;;;;;5055014;28;20824;-68
2023/05/11 10:27:36;;;;;;;740.13;688.47;;;15.00;27.00;;;;;;5053791;28;20413;-68
2023/05/11 10:30:02;;;;;;;613.17;573.23;;;14.60;28.50;;;;;;5054926;28;20186;-69
2023/05/11 10:32:30;;;;;;;729.17;681.23;;;14.60;30.00;;;;;;5051748;22;20502;-73
2023/05/11 10:34:56;;;;;;;545.07;511.53;;;14.70;30.90;;;;;;5014465;28;20492;-73
2023/05/11 10:37:21;;;;;;;830.73;773.90;;;14.60;29.30;;;;;;5014349;28;20410;-74
2023/05/11 10:39:50;;;;;;;688.37;642.77;;;14.70;28.70;;;;;;5014181;28;20412;-73
2023/05/11 10:42:28;;;;;;;655.80;613.83;;;15.00;29.30;;;;;;5014231;28;20577;-73
2023/05/11 10:45:32;;;;;;;611.77;571.90;;;15.20;28.30;;;;;;5014771;28;20422;-73
2023/05/11 10:48:23;;;;;;;538.80;504.63;;;15.00;27.80;;;;;;4983515;28;20410;-73
2023/05/11 10:51:06;;;;;;;672.33;628.47;;;14.90;29.40;;;;;;5014136;28;20900;-73
2023/05/11 10:53:51;;;;;;;592.07;554.00;;;15.00;29.30;;;;;;5012469;28;20441;-73
2023/05/11 10:56:51;;;;;;;697.07;651.87;;;14.80;25.90;;;;;;5014241;28;20816;-73
2023/05/11 10:59:38;;;;;;;544.13;510.07;;;14.70;25.80;;;;;;5014402;28;20411;-73
2023/05/11 11:02:04;;;;;;;565.63;529.80;;;15.00;26.20;;;;;;5013956;28;20771;-73
2023/05/11 11:05:04;;;;;;;714.77;668.13;;;15.40;26.80;;;;;;5014351;28;20446;-73
2023/05/11 11:07:30;;;;;;;583.37;544.83;;;15.90;24.90;;;;;;5002776;28;20422;-73
2023/05/11 11:10:03;;;;;;;589.33;551.00;;;16.30;22.70;;;;;;5014174;28;20477;-74
2023/05/11 11:12:30;;;;;;;568.47;533.23;;;16.30;23.20;;;;;;5012452;28;20956;-73
2023/05/11 11:15:06;;;;;;;537.43;504.27;;;16.40;22.40;;;;;;5014087;28;20415;-73
2023/05/11 11:17:35;;;;;;;508.27;476.00;;;16.40;20.70;;;;;;5013863;28;20481;-73
2023/05/11 11:20:03;;;;;;;648.70;605.13;;;16.10;22.60;;;;;;5013794;28;20494;-73
2023/05/11 11:22:37;;;;;;;616.30;575.50;;;16.20;22.60;;;;;;5013306;28;20474;-73
2023/05/11 11:25:14;;;;;;;695.67;647.80;;;16.20;22.60;;;;;;5013701;28;20418;-73
2023/05/11 11:27:39;;;;;;;718.83;667.97;;;16.20;23.80;;;;;;5013667;28;20419;-73
2023/05/11 11:30:21;;;;;;;602.47;563.20;;;16.20;22.60;;;;;;5013923;28;20956;-73
2023/05/11 11:32:49;;;;;;;806.13;749.23;;;16.00;20.60;;;;;;5011123;28;20215;-73
2023/05/11 11:35:43;;;;;;;761.50;707.90;;;15.80;22.30;;;;;;5013859;28;20419;-74
2023/05/11 11:38:19;;;;;;;540.20;509.07;;;15.80;22.60;;;;;;5013674;28;20414;-73
2023/05/11 11:40:48;;;;;;;717.70;669.53;;;16.10;23.10;;;;;;5015420;28;20454;-74
2023/05/11 11:43:17;;;;;;;728.03;677.43;;;16.40;21.80;;;;;;5012293;28;20960;-73
2023/05/11 11:45:59;;;;;;;797.40;741.50;;;16.30;21.30;;;;;;5013942;28;20403;-75
2023/05/11 11:48:34;;;;;;;616.13;575.77;;;16.50;21.50;;;;;;5014293;28;20830;-71
2023/05/11 11:51:11;;;;;;;753.70;701.60;;;16.50;19.10;;;;;;5014059;28;20415;-71
2023/05/11 11:53:36;;;;;;;621.30;582.07;;;16.50;18.60;;;;;;5013077;28;20431;-70
2023/05/11 11:56:06;;;;;;;775.27;720.17;;;16.60;19.40;;;;;;5013010;28;20427;-69
2023/05/11 11:58:44;;;;;;;795.93;738.03;;;16.60;20.40;;;;;;5013340;28;20179;-70
2023/05/11 12:01:12;;;;;;;705.77;655.87;;;16.30;22.30;;;;;;5011638;28;20450;-70
2023/05/11 12:03:38;;;;;;;746.93;695.97;;;16.50;22.30;;;;;;5012592;28;20947;-69
2023/05/11 12:06:06;;;;;;;716.50;666.63;;;16.40;22.70;;;;;;5012804;28;20465;-70
2023/05/11 12:08:32;;;;;;;711.83;661.40;;;16.30;20.30;;;;;;5012885;28;20465;-70
2023/05/11 12:11:02;;;;;;;683.67;636.87;;;16.30;21.00;;;;;;5012911;28;20419;-70
2023/05/11 12:13:28;;;;;;;712.33;665.17;;;16.70;20.80;;;;;;5012602;28;20434;-69